• Join FlightAware (Why Join?)
  • Login
  • US Flag 
01:43AM EDT


 

Airport Tracker/Info


-or-


 

Live Flight TrackerFlight Track Log ✈ UAL5840 ✈ 14-Apr-2013 ✈ KGSO - KIAD

Flight Track Log - Related Links

Times and Time Zones

All times are in EDT time to prevent confusion due to time zone crossing. See the UAL5840 flight status page for this flight to view local times or setup timezone preferences in your user account.

Time Position Orientation Groundspeed Altitude Reporting Facility
EDT Latitude Longitude Course Direction KTS MPH feet Rate Location/Type
09:18PM 36.2328 -79.6342 52° Northeast  Level FlightAware Approximate
09:18PM 36.1708 -79.7114 50° Northeast 285 328 11,300  Level Washington Center
09:19PM 36.2824 -79.5230 61° Northeast  Level FlightAware Approximate
09:19PM 36.2147 -79.6417 52° Northeast 295 339 12,400  Level Washington Center
09:20PM 36.3387 -79.4373 47° Northeast  Level FlightAware Approximate
09:20PM 36.2744 -79.5442 53° Northeast 306 352 15,400  Level Washington Center
09:21PM 36.3926 -79.3482 58° Northeast  Level FlightAware Approximate
09:21PM 36.3317 -79.4544 52° Northeast 342 394 17,100  Level Washington Center
09:22PM 36.4556 -79.2686 43° Northeast  Level FlightAware Approximate
09:22PM 36.3975 -79.3492 52° Northeast 365 420 18,100  Level Washington Center
09:23PM 36.5187 -79.1887 50° Northeast  Level FlightAware Approximate
09:23PM 36.4908 -79.2375 44° Northeast 387 445 19,300  Level Washington Center
09:24PM 36.5753 -79.1328 45° Northeast 416 479 20,300 900 Climbing Washington Center
09:25PM 36.6661 -79.0256 43° Northeast 428 493 21,200 780 Climbing Washington Center
09:26PM 36.7528 -78.9100 47° Northeast 441 507 21,900 360 Climbing Washington Center
09:27PM 36.8331 -78.7994 48° Northeast 463 533 22,000  Climbing Washington Center
09:28PM 36.9217 -78.6758 48° Northeast 469 540 22,000  Level Washington Center
09:29PM 37.0103 -78.5544 48° Northeast 474 545 22,000 -480 Level Washington Center
09:30PM 37.1053 -78.4278 47° Northeast 463 533 21,100 -1,020 Descending Washington Center
09:31PM 37.1894 -78.3058 49° Northeast 458 527 20,000 -600 Descending Washington Center
09:32PM 37.2753 -78.1889 47° Northeast 458 527 20,000  Level Washington Center
09:33PM 37.3572 -78.0714 49° Northeast 452 520 20,000  Level Washington Center
09:34PM 37.4389 -77.9536 49° Northeast 452 520 20,000  Level Washington Center
09:35PM 37.5244 -77.8386 47° Northeast 452 520 20,000 -480 Level Washington Center
09:36PM 37.6322 -77.7683 27° Northeast 438 504 19,100 -1,140 Descending Washington Center
09:37PM 37.7375 -77.7058 25° Northeast 426 490 17,800 -1,620 Descending Washington Center
09:38PM 37.8428 -77.6428 25° Northeast 421 484 15,900 -1,980 Descending Washington Center
09:39PM 37.9439 -77.5850 24° Northeast 407 468 13,900 -1,740 Descending Washington Center
09:40PM 38.0219 -77.5397 25° Northeast 393 452 12,500 -1,800 Descending Washington Center
09:41PM 38.1186 -77.4842 24° Northeast 365 420 10,400 -1,260 Descending Washington Center
09:42PM 38.1925 -77.4383 26° Northeast 325 374 10,000 -300 Descending Washington Center
09:43PM 38.2639 -77.3978 24° Northeast 291 335 9,900 -1,080 Descending Washington Center
09:44PM 38.3356 -77.3572 24° Northeast 277 319 7,900 -1,800 Descending Washington Center
09:45PM 38.4125 -77.3564 360° North 271 312 6,300 -1,440 Descending Washington Center
09:46PM 38.4897 -77.3608 357° North 271 312 5,100 -660 Descending Washington Center
09:47PM 38.5667 -77.3653 357° North 271 312 5,000 -240 Descending Washington Center
09:48PM 38.6333 -77.3667 359° North 277 319 4,700 -600 Descending Potomac TRACON
09:49PM 38.7167 -77.3667 360° North 276 318 4,000 -360 Descending Potomac TRACON
09:50PM 38.8000 -77.3500 North 268 308 4,000  Level Potomac TRACON
09:51PM 38.8667 -77.3500 360° North 268 308 4,000  Level Potomac TRACON
09:52PM 38.9500 -77.3500 360° North 272 313 4,000 -120 Level Potomac TRACON
09:53PM 39.0167 -77.3500 360° North 238 274 3,800 -240 Descending Potomac TRACON